This is the latest recevied weather packets stored in our database for station/object S54Z-11. If no packets are shown the sender has not sent any weather packets the latest 10 day(s).
| Time | Temp. | Humidity | Pressure | Rain* | Wind** | Luminosity | Snow |
|---|---|---|---|---|---|---|---|
| 1777877680 | 22.22° C | 35% | 1019.3 hPa | - | - | - | - |
| 1777876780 | 22.22° C | 35% | 1019.2 hPa | - | - | - | - |
| 1777875880 | 20° C | 37% | 1019.2 hPa | - | - | - | - |
| 1777874980 | 20.56° C | 36% | 1019.3 hPa | - | - | - | - |
| 1777874080 | 18.89° C | 40% | 1019.2 hPa | - | - | - | - |
| 1777873180 | 17.78° C | 42% | 1019.2 hPa | - | - | - | - |
| 1777872280 | 17.22° C | 42% | 1019.1 hPa | - | - | - | - |
| 1777871380 | 17.78° C | 42% | 1019.1 hPa | - | - | - | - |
| 1777870480 | 16.67° C | 43% | 1019.1 hPa | - | - | - | - |
| 1777869580 | 15.56° C | 45% | 1019 hPa | - | - | - | - |
| 1777868679 | 15.56° C | 45% | 1018.9 hPa | - | - | - | - |
| 1777867779 | 15° C | 45% | 1018.9 hPa | - | - | - | - |
| 1777866879 | 13.33° C | 51% | 1019 hPa | - | - | - | - |
| 1777865979 | 12.78° C | 52% | 1019 hPa | - | - | - | - |
| 1777865079 | 13.33° C | 52% | 1019 hPa | - | - | - | - |
| 1777864179 | 13.33° C | 52% | 1019 hPa | - | - | - | - |
| 1777863279 | 13.33° C | 53% | 1019.1 hPa | - | - | - | - |
| 1777862379 | 13.33° C | 52% | 1019.2 hPa | - | - | - | - |
| 1777861479 | 13.33° C | 52% | 1019.1 hPa | - | - | - | - |
| 1777860579 | 13.33° C | 52% | 1019.1 hPa | - | - | - | - |
| 1777859679 | 13.33° C | 52% | 1019.2 hPa | - | - | - | - |
| 1777857878 | 13.89° C | 52% | 1019.2 hPa | - | - | - | - |
| 1777856978 | 13.89° C | 53% | 1019.3 hPa | - | - | - | - |
| 1777856079 | 13.89° C | 53% | 1019.2 hPa | - | - | - | - |
| 1777855178 | 13.89° C | 53% | 1019.2 hPa | - | - | - | - |
* Rain since midnight (hover to see other rain measurements)
** Current wind speed in m/s (hover to see current wind gust speed)